Time;durP1;ratioP1;P1;durP2;ratioP2;P2;SDS_P1;SDS_P2;PMS_P1;PMS_P2;Temp;Humidity;BMP_temperature;BMP_pressure;BME280_temperature;BME280_humidity;BME280_pressure;Samples;Min_cycle;Max_cycle;Signal;HPM_P1;HPM_P2
2022/06/22 00:00:15;;;;;;;2.80;2.30;;;;;;;;;;5073025;28;20186;-54
2022/06/22 00:02:43;;;;;;;2.53;2.00;;;;;;;;;;5086834;28;20232;-55
2022/06/22 00:05:22;;;;;;;2.63;2.00;;;;;;;;;;5086852;28;20649;-55
2022/06/22 00:07:54;;;;;;;2.50;1.73;;;;;;;;;;5079288;28;20189;-54
2022/06/22 00:10:29;;;;;;;2.03;1.80;;;;;;;;;;5080680;28;20172;-55
2022/06/22 00:12:56;;;;;;;2.30;2.10;;;;;;;;;;5102455;28;20191;-55
2022/06/22 00:15:27;;;;;;;2.83;2.20;;;;;;;;;;5081315;28;20255;-56
2022/06/22 00:17:53;;;;;;;2.80;2.20;;;;;;;;;;5080398;28;20181;-55
2022/06/22 00:20:24;;;;;;;2.77;2.47;;;;;;;;;;5084718;28;20266;-55
2022/06/22 00:22:52;;;;;;;2.00;1.90;;;;;;;;;;5081579;28;20196;-55
2022/06/22 00:25:33;;;;;;;2.57;1.80;;;;;;;;;;5080157;28;20174;-55
2022/06/22 00:28:18;;;;;;;2.57;2.37;;;;;;;;;;5082885;28;20231;-54
2022/06/22 00:30:47;;;;;;;2.57;1.93;;;;;;;;;;5082769;28;20184;-54
2022/06/22 00:33:16;;;;;;;1.77;1.63;;;;;;;;;;5080191;28;20240;-55
2022/06/22 00:35:43;;;;;;;5.17;2.17;;;;;;;;;;5088251;28;20190;-54
2022/06/22 00:38:36;;;;;;;3.20;1.97;;;;;;;;;;5088245;28;20184;-55
2022/06/22 00:41:21;;;;;;;2.33;1.90;;;;;;;;;;5082476;28;20642;-54
2022/06/22 00:43:47;;;;;;;2.23;2.03;;;;;;;;;;5083898;28;20201;-54
2022/06/22 00:46:18;;;;;;;2.00;1.83;;;;;;;;;;5082883;28;20219;-55
2022/06/22 00:48:46;;;;;;;3.03;2.13;;;;;;;;;;5089665;28;20196;-55
2022/06/22 00:51:14;;;;;;;2.70;1.90;;;;;;;;;;5087438;28;20550;-55
2022/06/22 00:54:01;;;;;;;3.20;2.20;;;;;;;;;;5087296;28;20192;-54
2022/06/22 00:56:27;;;;;;;1.80;1.70;;;;;;;;;;5082386;28;20207;-55
2022/06/22 00:59:02;;;;;;;2.57;1.83;;;;;;;;;;5086146;28;20190;-54
2022/06/22 01:01:42;;;;;;;2.63;2.00;;;;;;;;;;5083727;28;20568;-55
2022/06/22 01:04:16;;;;;;;3.53;2.33;;;;;;;;;;5089035;28;20173;-55
2022/06/22 01:06:49;;;;;;;1.90;1.80;;;;;;;;;;5089032;28;20191;-54
2022/06/22 01:09:15;;;;;;;3.40;2.07;;;;;;;;;;5088001;28;20198;-54
2022/06/22 01:14:40;;;;;;;3.30;2.30;;;;;;;;;;5076797;28;20650;-54
2022/06/22 01:17:08;;;;;;;2.23;1.83;;;;;;;;;;5108506;28;20230;-54
2022/06/22 01:19:37;;;;;;;2.37;1.97;;;;;;;;;;5109272;28;20159;-54
2022/06/22 01:22:12;;;;;;;2.20;2.00;;;;;;;;;;5093942;28;20183;-53
2022/06/22 01:24:53;;;;;;;2.33;2.13;;;;;;;;;;5082582;28;20175;-54
2022/06/22 01:27:30;;;;;;;2.33;1.80;;;;;;;;;;5088093;28;20630;-54
2022/06/22 01:29:58;;;;;;;2.20;2.00;;;;;;;;;;5090135;28;20201;-54
2022/06/22 01:32:29;;;;;;;2.13;1.90;;;;;;;;;;5086739;28;20813;-54
2022/06/22 01:34:57;;;;;;;2.47;2.30;;;;;;;;;;5108811;28;20171;-54
2022/06/22 01:37:31;;;;;;;2.57;2.37;;;;;;;;;;5108286;28;20294;-54
2022/06/22 01:40:11;;;;;;;3.10;2.17;;;;;;;;;;5106820;28;20176;-54
2022/06/22 01:42:57;;;;;;;2.83;2.10;;;;;;;;;;5105679;28;20193;-57
2022/06/22 01:45:31;;;;;;;2.40;2.20;;;;;;;;;;5090057;28;20171;-53
2022/06/22 01:48:03;;;;;;;2.53;2.23;;;;;;;;;;5083868;28;20179;-54
2022/06/22 01:50:41;;;;;;;3.83;2.13;;;;;;;;;;5089500;28;20456;-54
2022/06/22 01:53:27;;;;;;;2.47;2.20;;;;;;;;;;5111527;27;20184;-54
2022/06/22 01:55:57;;;;;;;2.60;2.40;;;;;;;;;;5117082;27;20202;-54
2022/06/22 01:58:35;;;;;;;2.30;2.10;;;;;;;;;;5107066;28;20545;-54
2022/06/22 02:01:11;;;;;;;2.27;2.07;;;;;;;;;;5108432;28;20163;-53
2022/06/22 02:03:42;;;;;;;2.60;2.40;;;;;;;;;;5105824;28;20201;-54
2022/06/22 02:09:11;;;;;;;2.33;2.13;;;;;;;;;;5107195;28;20235;-54
2022/06/22 02:11:40;;;;;;;2.40;2.20;;;;;;;;;;5086517;28;20191;-55
2022/06/22 02:14:09;;;;;;;3.53;2.30;;;;;;;;;;5083748;28;20211;-54
2022/06/22 02:16:37;;;;;;;2.30;2.03;;;;;;;;;;5086793;28;20312;-53
2022/06/22 02:19:04;;;;;;;2.30;2.00;;;;;;;;;;5086031;28;20555;-54
2022/06/22 02:21:44;;;;;;;3.93;2.40;;;;;;;;;;5084909;28;20635;-53
2022/06/22 02:24:13;;;;;;;2.37;2.17;;;;;;;;;;5068095;28;20165;-53
2022/06/22 02:26:52;;;;;;;2.83;2.43;;;;;;;;;;5064613;28;20294;-54
2022/06/22 02:29:20;;;;;;;1.80;1.70;;;;;;;;;;5069302;28;20179;-54
2022/06/22 02:31:47;;;;;;;3.03;2.00;;;;;;;;;;5068724;28;20206;-54
2022/06/22 02:34:16;;;;;;;2.13;1.93;;;;;;;;;;5083108;28;20246;-54
2022/06/22 02:36:45;;;;;;;2.43;2.23;;;;;;;;;;5084123;28;20204;-54
2022/06/22 02:39:12;;;;;;;4.10;2.80;;;;;;;;;;5087141;28;20677;-54
2022/06/22 02:44:29;;;;;;;2.43;2.23;;;;;;;;;;5078102;28;20615;-55
2022/06/22 02:46:56;;;;;;;2.00;1.80;;;;;;;;;;5087885;28;20441;-54
2022/06/22 02:49:24;;;;;;;2.67;2.23;;;;;;;;;;5087155;28;20238;-55
2022/06/22 02:51:51;;;;;;;2.00;1.77;;;;;;;;;;5072753;28;20215;-55
2022/06/22 02:54:44;;;;;;;3.43;2.10;;;;;;;;;;5084554;28;20611;-54
2022/06/22 02:57:30;;;;;;;3.43;2.30;;;;;;;;;;5054886;28;20285;-54
2022/06/22 02:59:57;;;;;;;2.00;1.90;;;;;;;;;;5014325;28;20184;-54
2022/06/22 03:02:25;;;;;;;3.23;2.20;;;;;;;;;;5085172;28;20202;-55
2022/06/22 03:04:53;;;;;;;1.90;1.80;;;;;;;;;;5068102;28;20199;-54
2022/06/22 03:07:20;;;;;;;5.87;2.37;;;;;;;;;;5068391;28;20176;-54
2022/06/22 03:09:47;;;;;;;4.60;2.50;;;;;;;;;;5085727;28;20188;-54
2022/06/22 03:12:14;;;;;;;2.47;2.07;;;;;;;;;;5064165;28;20220;-55
2022/06/22 03:14:54;;;;;;;3.13;2.00;;;;;;;;;;5086527;27;20211;-55
2022/06/22 03:17:24;;;;;;;3.43;2.60;;;;;;;;;;5075176;28;20219;-54
2022/06/22 03:19:52;;;;;;;2.30;2.10;;;;;;;;;;5061643;28;20239;-55
2022/06/22 03:22:28;;;;;;;2.90;2.43;;;;;;;;;;5071644;28;20549;-55
2022/06/22 03:25:11;;;;;;;2.90;2.20;;;;;;;;;;5052271;28;20244;-55
2022/06/22 03:27:39;;;;;;;2.57;2.23;;;;;;;;;;5055531;28;20603;-54
2022/06/22 03:30:14;;;;;;;5.13;2.50;;;;;;;;;;5053334;28;20285;-55
2022/06/22 03:32:45;;;;;;;3.87;2.40;;;;;;;;;;5044716;28;20187;-55
2022/06/22 03:35:16;;;;;;;2.47;2.13;;;;;;;;;;5065140;28;20202;-55
2022/06/22 03:37:50;;;;;;;2.03;1.90;;;;;;;;;;5072523;28;20293;-55
2022/06/22 03:40:25;;;;;;;5.17;3.50;;;;;;;;;;5076253;28;20189;-55
2022/06/22 03:42:59;;;;;;;3.77;3.23;;;;;;;;;;5048419;28;20184;-55
2022/06/22 03:45:34;;;;;;;3.43;2.27;;;;;;;;;;5042956;28;20179;-55
2022/06/22 03:48:00;;;;;;;2.73;2.27;;;;;;;;;;5046922;28;20639;-54
2022/06/22 03:50:32;;;;;;;2.73;2.43;;;;;;;;;;5038963;28;20211;-55
2022/06/22 03:52:58;;;;;;;2.47;2.20;;;;;;;;;;5069303;28;20180;-53
2022/06/22 03:55:30;;;;;;;3.07;2.43;;;;;;;;;;5081684;28;20739;-55
2022/06/22 03:58:05;;;;;;;2.10;2.00;;;;;;;;;;5066486;28;20180;-54
2022/06/22 04:00:33;;;;;;;2.10;2.00;;;;;;;;;;5051645;28;20327;-54
2022/06/22 04:03:00;;;;;;;3.93;2.90;;;;;;;;;;5071280;28;20265;-54
2022/06/22 04:05:28;;;;;;;2.40;2.23;;;;;;;;;;5050262;28;20164;-55
2022/06/22 04:07:55;;;;;;;2.50;2.30;;;;;;;;;;5058953;28;20241;-54
2022/06/22 04:10:29;;;;;;;3.00;2.60;;;;;;;;;;5065494;28;20187;-54
2022/06/22 04:13:05;;;;;;;2.40;2.20;;;;;;;;;;5063973;28;20182;-54
2022/06/22 04:15:35;;;;;;;3.33;2.57;;;;;;;;;;5060150;28;20229;-57
2022/06/22 04:18:06;;;;;;;4.03;2.77;;;;;;;;;;5066800;28;20653;-53
2022/06/22 04:20:51;;;;;;;2.20;2.00;;;;;;;;;;5067421;28;20605;-54
2022/06/22 04:23:29;;;;;;;3.50;3.30;;;;;;;;;;5084483;28;20199;-55
2022/06/22 04:25:58;;;;;;;2.33;2.10;;;;;;;;;;5090921;28;20171;-54
2022/06/22 04:28:27;;;;;;;2.43;2.23;;;;;;;;;;5064260;28;20202;-54
2022/06/22 04:30:53;;;;;;;3.80;2.20;;;;;;;;;;5078891;28;20744;-54
2022/06/22 04:33:22;;;;;;;4.60;4.20;;;;;;;;;;5085741;28;20187;-54
2022/06/22 04:35:53;;;;;;;4.03;2.40;;;;;;;;;;5074035;28;20195;-54
2022/06/22 04:38:29;;;;;;;3.00;2.17;;;;;;;;;;5084221;28;20370;-54
2022/06/22 04:40:58;;;;;;;2.60;2.13;;;;;;;;;;5082902;28;20206;-54
2022/06/22 04:43:25;;;;;;;2.17;2.00;;;;;;;;;;5081882;28;20168;-55
2022/06/22 04:45:52;;;;;;;2.53;2.33;;;;;;;;;;5050664;28;20187;-54
2022/06/22 04:48:24;;;;;;;3.73;2.50;;;;;;;;;;5067621;28;20992;-54
2022/06/22 04:50:53;;;;;;;2.83;2.60;;;;;;;;;;5072026;28;20559;-53
2022/06/22 04:53:31;;;;;;;4.57;2.63;;;;;;;;;;5059582;28;20191;-54
2022/06/22 04:56:00;;;;;;;3.27;2.20;;;;;;;;;;5085386;28;20203;-54
2022/06/22 04:58:33;;;;;;;2.33;2.10;;;;;;;;;;5060085;28;20187;-54
2022/06/22 05:01:00;;;;;;;3.27;3.07;;;;;;;;;;5057387;28;20651;-54
2022/06/22 05:03:28;;;;;;;2.13;1.90;;;;;;;;;;5102643;28;20254;-54
2022/06/22 05:05:55;;;;;;;4.63;2.20;;;;;;;;;;5075918;28;20175;-54
2022/06/22 05:08:44;;;;;;;2.77;2.10;;;;;;;;;;5084192;28;20306;-54
2022/06/22 05:11:13;;;;;;;2.83;1.90;;;;;;;;;;5097692;28;20603;-54
2022/06/22 05:13:42;;;;;;;3.50;2.40;;;;;;;;;;5062864;28;20713;-51
2022/06/22 05:16:12;;;;;;;3.43;2.47;;;;;;;;;;5084204;28;20716;-53
2022/06/22 05:18:43;;;;;;;3.43;2.10;;;;;;;;;;5067468;28;20765;-53
2022/06/22 05:21:16;;;;;;;2.80;2.00;;;;;;;;;;5068736;28;20184;-53
2022/06/22 05:23:45;;;;;;;3.40;2.20;;;;;;;;;;5068842;28;20175;-53
2022/06/22 05:26:11;;;;;;;2.53;2.20;;;;;;;;;;5077219;28;20246;-53
2022/06/22 05:28:46;;;;;;;2.43;2.23;;;;;;;;;;5083289;28;20541;-53
2022/06/22 05:31:15;;;;;;;2.10;2.00;;;;;;;;;;5089469;28;20649;-53
2022/06/22 05:33:43;;;;;;;2.27;2.07;;;;;;;;;;5087285;28;20190;-53
2022/06/22 05:36:11;;;;;;;2.60;1.90;;;;;;;;;;5070726;28;20199;-52
2022/06/22 05:38:40;;;;;;;2.60;2.40;;;;;;;;;;5089124;28;20614;-53
2022/06/22 05:41:07;;;;;;;2.53;2.33;;;;;;;;;;5069660;28;20267;-54
2022/06/22 05:43:34;;;;;;;2.77;2.57;;;;;;;;;;5086140;28;20207;-53
2022/06/22 05:46:06;;;;;;;2.30;2.10;;;;;;;;;;5061627;28;20180;-54
2022/06/22 05:48:34;;;;;;;2.47;2.27;;;;;;;;;;5081913;28;20574;-55
2022/06/22 05:51:02;;;;;;;2.77;2.33;;;;;;;;;;5078715;28;20291;-56
2022/06/22 05:53:32;;;;;;;2.73;2.17;;;;;;;;;;5088093;28;20622;-56
2022/06/22 05:56:14;;;;;;;2.83;2.30;;;;;;;;;;5091849;28;20594;-56
2022/06/22 05:58:43;;;;;;;2.27;2.07;;;;;;;;;;5109365;28;20246;-54
2022/06/22 06:01:28;;;;;;;2.33;2.13;;;;;;;;;;5097907;28;20659;-56
2022/06/22 06:04:20;;;;;;;3.17;2.03;;;;;;;;;;5064822;28;20183;-55
2022/06/22 06:06:48;;;;;;;2.40;2.20;;;;;;;;;;5053314;28;20183;-56
2022/06/22 06:09:19;;;;;;;2.47;2.13;;;;;;;;;;5070427;28;20172;-55
2022/06/22 06:11:49;;;;;;;2.27;2.07;;;;;;;;;;5063095;28;20191;-56
2022/06/22 06:14:21;;;;;;;2.63;2.43;;;;;;;;;;5087177;28;20247;-56
2022/06/22 06:16:51;;;;;;;2.10;2.00;;;;;;;;;;5063726;28;20580;-56
2022/06/22 06:19:19;;;;;;;2.13;2.03;;;;;;;;;;5049685;28;20494;-56
2022/06/22 06:21:46;;;;;;;3.53;2.33;;;;;;;;;;5066732;28;20180;-56
2022/06/22 06:24:20;;;;;;;2.67;2.47;;;;;;;;;;5067862;28;20161;-56
2022/06/22 06:29:47;;;;;;;3.83;2.50;;;;;;;;;;5083877;28;20242;-56
2022/06/22 06:32:23;;;;;;;3.07;2.27;;;;;;;;;;5052767;28;20356;-56
2022/06/22 06:34:54;;;;;;;2.50;2.20;;;;;;;;;;5042526;28;20180;-55
2022/06/22 06:37:20;;;;;;;4.83;3.47;;;;;;;;;;5045815;28;20702;-57
2022/06/22 06:39:51;;;;;;;5.57;3.60;;;;;;;;;;5044735;28;20185;-58
2022/06/22 06:42:23;;;;;;;6.90;3.70;;;;;;;;;;5061843;28;20713;-56
2022/06/22 06:44:51;;;;;;;8.47;3.53;;;;;;;;;;5062507;28;20174;-55
2022/06/22 06:47:37;;;;;;;4.70;2.80;;;;;;;;;;5046080;28;20185;-55
2022/06/22 06:50:07;;;;;;;4.60;2.97;;;;;;;;;;5060542;28;20248;-56
2022/06/22 06:52:36;;;;;;;3.73;2.60;;;;;;;;;;5049407;28;20674;-55
2022/06/22 06:55:14;;;;;;;5.30;3.47;;;;;;;;;;5066986;28;20233;-57
2022/06/22 06:57:55;;;;;;;4.70;2.93;;;;;;;;;;5042227;28;20258;-56
2022/06/22 07:00:22;;;;;;;6.23;3.20;;;;;;;;;;5041342;28;20639;-56
2022/06/22 07:02:48;;;;;;;5.00;2.97;;;;;;;;;;5067441;28;20234;-55
2022/06/22 07:05:16;;;;;;;5.07;2.87;;;;;;;;;;5065647;28;20642;-56
2022/06/22 07:07:46;;;;;;;6.43;3.17;;;;;;;;;;5046260;28;20406;-56
2022/06/22 07:10:22;;;;;;;5.27;3.20;;;;;;;;;;5064667;28;20202;-56
2022/06/22 07:12:52;;;;;;;5.53;2.87;;;;;;;;;;5045941;28;20609;-56
2022/06/22 07:15:21;;;;;;;4.47;2.67;;;;;;;;;;5072660;28;20295;-56
2022/06/22 07:17:48;;;;;;;2.70;2.50;;;;;;;;;;5061664;28;20333;-55
2022/06/22 07:20:21;;;;;;;2.77;2.33;;;;;;;;;;5060035;28;20176;-55
2022/06/22 07:23:16;;;;;;;4.57;2.57;;;;;;;;;;5083986;28;20580;-55
2022/06/22 07:25:59;;;;;;;5.27;3.40;;;;;;;;;;5063855;28;20217;-55
2022/06/22 07:28:44;;;;;;;2.70;2.50;;;;;;;;;;5047829;28;20181;-55
2022/06/22 07:31:20;;;;;;;3.80;2.40;;;;;;;;;;5064362;28;20630;-55
2022/06/22 07:33:49;;;;;;;6.18;3.00;;;;;;;;;;5061788;28;20489;-55
2022/06/22 07:36:19;;;;;;;3.33;3.03;;;;;;;;;;5079183;28;20776;-56
2022/06/22 07:38:48;;;;;;;5.63;2.80;;;;;;;;;;5066495;28;20210;-56
2022/06/22 07:41:20;;;;;;;5.37;2.60;;;;;;;;;;5061396;28;20186;-55
2022/06/22 07:43:46;;;;;;;3.17;2.87;;;;;;;;;;5076814;28;20194;-55
2022/06/22 07:46:16;;;;;;;6.63;3.57;;;;;;;;;;5075518;28;20425;-56
2022/06/22 07:48:44;;;;;;;4.30;3.00;;;;;;;;;;5081314;28;20625;-56
2022/06/22 07:51:14;;;;;;;5.00;2.60;;;;;;;;;;5065832;28;20270;-55
2022/06/22 07:53:49;;;;;;;5.00;2.60;;;;;;;;;;5092681;28;20179;-55
2022/06/22 07:56:20;;;;;;;2.87;2.63;;;;;;;;;;5062795;28;20215;-60
2022/06/22 07:58:48;;;;;;;5.17;2.80;;;;;;;;;;5068411;28;20251;-56
2022/06/22 08:01:17;;;;;;;3.40;2.60;;;;;;;;;;5063421;28;20296;-56
2022/06/22 08:04:16;;;;;;;3.83;2.70;;;;;;;;;;5086094;28;20521;-56
2022/06/22 08:06:55;;;;;;;3.90;2.57;;;;;;;;;;5039169;28;20664;-56
2022/06/22 08:09:24;;;;;;;3.23;2.60;;;;;;;;;;5081881;28;20665;-55
2022/06/22 08:11:55;;;;;;;3.37;3.00;;;;;;;;;;5076728;28;20181;-56
2022/06/22 08:14:28;;;;;;;6.07;3.27;;;;;;;;;;5076645;28;20238;-54
2022/06/22 08:16:59;;;;;;;3.70;2.43;;;;;;;;;;5101512;28;20587;-55
2022/06/22 08:19:28;;;;;;;3.47;2.70;;;;;;;;;;5099995;28;20629;-56
2022/06/22 08:21:58;;;;;;;3.10;2.70;;;;;;;;;;5086843;28;20575;-58
2022/06/22 08:24:25;;;;;;;3.13;2.80;;;;;;;;;;5108364;28;20633;-56
2022/06/22 08:26:53;;;;;;;4.57;3.10;;;;;;;;;;5101158;28;20171;-55
2022/06/22 08:29:23;;;;;;;3.90;2.70;;;;;;;;;;5087400;28;20310;-57
2022/06/22 08:31:53;;;;;;;3.20;2.50;;;;;;;;;;5089430;28;20179;-56
2022/06/22 08:34:23;;;;;;;4.10;2.53;;;;;;;;;;5075709;28;20175;-56
2022/06/22 08:36:52;;;;;;;2.87;2.63;;;;;;;;;;5079752;28;20578;-57
2022/06/22 08:39:37;;;;;;;3.17;2.50;;;;;;;;;;5090510;28;20170;-56
2022/06/22 08:42:04;;;;;;;2.40;2.20;;;;;;;;;;5103870;28;20194;-54
2022/06/22 08:44:30;;;;;;;3.70;2.77;;;;;;;;;;5090871;28;20205;-57
2022/06/22 08:47:10;;;;;;;2.63;2.43;;;;;;;;;;5099397;28;20283;-56
2022/06/22 08:49:55;;;;;;;3.73;2.40;;;;;;;;;;5085504;28;20600;-56
2022/06/22 08:52:48;;;;;;;5.57;2.90;;;;;;;;;;5096454;28;20696;-56
2022/06/22 08:55:17;;;;;;;3.57;2.00;;;;;;;;;;5063954;28;20211;-56
2022/06/22 08:57:49;;;;;;;3.40;2.80;;;;;;;;;;5104236;27;20252;-55
2022/06/22 09:00:21;;;;;;;4.60;2.20;;;;;;;;;;5088628;28;20530;-55
2022/06/22 09:03:06;;;;;;;3.13;2.20;;;;;;;;;;5105385;28;20183;-55
2022/06/22 09:05:47;;;;;;;2.40;1.93;;;;;;;;;;5106909;27;20189;-55
2022/06/22 09:08:26;;;;;;;4.23;2.50;;;;;;;;;;5091467;27;20570;-55
2022/06/22 09:11:16;;;;;;;6.60;2.37;;;;;;;;;;5084553;27;20188;-55
2022/06/22 09:14:00;;;;;;;3.70;2.13;;;;;;;;;;5089683;28;20194;-56
2022/06/22 09:16:32;;;;;;;2.97;2.23;;;;;;;;;;5079853;28;20225;-56
2022/06/22 09:19:05;;;;;;;4.83;2.63;;;;;;;;;;5073038;28;20584;-56
2022/06/22 09:21:37;;;;;;;2.37;2.07;;;;;;;;;;5086622;28;20272;-55
2022/06/22 09:24:04;;;;;;;3.60;2.20;;;;;;;;;;5066320;28;20184;-55
2022/06/22 09:26:49;;;;;;;4.73;2.40;;;;;;;;;;5070146;28;21841;-56
2022/06/22 09:29:18;;;;;;;4.93;2.50;;;;;;;;;;5072913;28;20225;-56
2022/06/22 09:31:45;;;;;;;3.20;2.20;;;;;;;;;;5083800;28;20193;-55
2022/06/22 09:34:21;;;;;;;2.40;2.17;;;;;;;;;;5074430;28;20184;-56
2022/06/22 09:36:50;;;;;;;3.10;2.03;;;;;;;;;;5069452;28;20395;-55
2022/06/22 09:39:26;;;;;;;2.87;2.67;;;;;;;;;;5077070;28;20181;-56
2022/06/22 09:42:10;;;;;;;2.30;2.10;;;;;;;;;;5084984;28;20189;-54
2022/06/22 09:44:39;;;;;;;3.27;2.43;;;;;;;;;;5080781;28;20561;-55
2022/06/22 09:47:05;;;;;;;2.73;2.33;;;;;;;;;;5071580;28;20549;-55
2022/06/22 09:49:41;;;;;;;2.40;2.13;;;;;;;;;;5075174;28;20192;-54
2022/06/22 09:52:46;;;;;;;4.37;2.33;;;;;;;;;;5058856;28;20221;-55
2022/06/22 09:58:08;;;;;;;3.53;2.30;;;;;;;;;;5024024;28;20312;-56
2022/06/22 10:00:46;;;;;;;2.63;2.43;;;;;;;;;;5050686;28;20457;-56
2022/06/22 10:03:31;;;;;;;3.97;2.40;;;;;;;;;;5068319;28;20187;-56
2022/06/22 10:06:04;;;;;;;2.70;2.50;;;;;;;;;;5100318;28;20470;-56
2022/06/22 10:08:56;;;;;;;2.43;2.23;;;;;;;;;;5077501;28;20575;-56
2022/06/22 10:11:31;;;;;;;2.90;2.20;;;;;;;;;;5039049;28;20199;-56
2022/06/22 10:13:57;;;;;;;2.33;1.90;;;;;;;;;;5080513;28;20186;-56
2022/06/22 10:16:36;;;;;;;2.50;2.30;;;;;;;;;;5078984;28;20247;-54
2022/06/22 10:19:09;;;;;;;2.43;2.23;;;;;;;;;;5090148;28;20649;-55
2022/06/22 10:21:54;;;;;;;5.17;2.53;;;;;;;;;;5103962;28;20183;-55
2022/06/22 10:24:23;;;;;;;2.70;2.50;;;;;;;;;;5083721;28;20258;-56
2022/06/22 10:27:13;;;;;;;2.80;2.23;;;;;;;;;;5077173;28;20295;-57
2022/06/22 10:29:42;;;;;;;3.10;2.80;;;;;;;;;;5067747;28;20251;-57
2022/06/22 10:32:23;;;;;;;3.97;2.87;;;;;;;;;;5103401;27;20484;-57
2022/06/22 10:35:01;;;;;;;2.87;2.50;;;;;;;;;;5088445;28;20274;-57
2022/06/22 10:37:47;;;;;;;3.80;3.40;;;;;;;;;;5086172;28;20206;-57
2022/06/22 10:46:07;;;;;;;2.10;2.00;;;;;;;;;;5108550;28;20190;-56
2022/06/22 10:48:48;;;;;;;2.93;2.50;;;;;;;;;;5106895;28;20327;-56
2022/06/22 10:51:15;;;;;;;2.57;2.37;;;;;;;;;;5103588;28;20495;-56
2022/06/22 10:53:49;;;;;;;3.00;2.37;;;;;;;;;;5104299;27;20570;-57
2022/06/22 10:56:24;;;;;;;4.17;2.17;;;;;;;;;;5105085;28;20206;-56
2022/06/22 10:59:11;;;;;;;2.37;2.10;;;;;;;;;;5082578;27;20182;-56
2022/06/22 11:01:52;;;;;;;2.83;2.47;;;;;;;;;;5071507;27;20661;-56
2022/06/22 11:04:25;;;;;;;2.90;2.23;;;;;;;;;;5101209;28;20474;-55
2022/06/22 11:06:54;;;;;;;2.10;2.00;;;;;;;;;;5096279;28;20266;-56
2022/06/22 11:09:23;;;;;;;2.40;2.20;;;;;;;;;;5103693;27;20215;-56
2022/06/22 11:11:57;;;;;;;2.80;2.47;;;;;;;;;;5085244;27;20188;-56
2022/06/22 11:14:42;;;;;;;2.60;2.17;;;;;;;;;;5086553;28;20184;-55
2022/06/22 11:17:21;;;;;;;2.50;2.30;;;;;;;;;;5080547;28;20214;-56
2022/06/22 11:19:47;;;;;;;3.00;2.10;;;;;;;;;;5075466;28;20535;-56
2022/06/22 11:22:18;;;;;;;3.27;2.60;;;;;;;;;;5075363;28;20211;-56
2022/06/22 11:24:47;;;;;;;2.67;2.37;;;;;;;;;;5069962;28;20865;-55
2022/06/22 11:30:51;;;;;;;2.43;2.23;;;;;;;;;;5073996;28;20257;-57
2022/06/22 11:33:31;;;;;;;3.63;2.33;;;;;;;;;;5078940;28;20176;-56
2022/06/22 11:36:16;;;;;;;2.20;2.10;;;;;;;;;;5077139;28;20284;-57
2022/06/22 11:39:00;;;;;;;2.70;2.50;;;;;;;;;;5079081;28;20186;-56
2022/06/22 11:41:42;;;;;;;2.47;2.27;;;;;;;;;;5078942;28;20648;-57
2022/06/22 11:44:29;;;;;;;3.13;2.50;;;;;;;;;;5078895;28;20190;-57
2022/06/22 11:46:57;;;;;;;2.43;2.23;;;;;;;;;;5069068;28;20190;-57
2022/06/22 11:49:26;;;;;;;3.50;2.37;;;;;;;;;;5085112;28;20257;-57
2022/06/22 11:52:05;;;;;;;2.50;2.03;;;;;;;;;;5082955;28;20511;-57
2022/06/22 11:54:49;;;;;;;2.50;2.30;;;;;;;;;;5082028;28;20181;-56
2022/06/22 11:57:15;;;;;;;2.93;2.63;;;;;;;;;;5081996;28;20206;-57
2022/06/22 11:59:41;;;;;;;5.10;4.90;;;;;;;;;;5083895;28;20220;-56
2022/06/22 12:02:17;;;;;;;3.03;2.83;;;;;;;;;;5084472;28;20187;-57
2022/06/22 12:04:43;;;;;;;2.90;2.70;;;;;;;;;;5081435;28;20254;-56
2022/06/22 12:07:25;;;;;;;2.20;2.00;;;;;;;;;;5081743;28;20191;-57
2022/06/22 12:09:51;;;;;;;2.70;2.50;;;;;;;;;;5081506;28;20601;-57
2022/06/22 12:12:30;;;;;;;2.67;2.47;;;;;;;;;;5083629;28;20209;-58
2022/06/22 12:15:05;;;;;;;2.60;2.40;;;;;;;;;;5083547;28;20678;-57
2022/06/22 12:17:53;;;;;;;4.27;2.20;;;;;;;;;;5099308;28;20298;-57
2022/06/22 12:20:25;;;;;;;3.60;3.40;;;;;;;;;;5099226;28;20184;-57
2022/06/22 12:22:57;;;;;;;2.67;2.40;;;;;;;;;;5101886;28;20385;-56
2022/06/22 12:25:26;;;;;;;2.50;2.30;;;;;;;;;;5092917;28;20185;-57
2022/06/22 12:28:02;;;;;;;3.20;2.40;;;;;;;;;;5106746;28;20579;-57
2022/06/22 12:30:39;;;;;;;3.13;2.50;;;;;;;;;;5108588;28;20697;-57
2022/06/22 12:33:21;;;;;;;5.63;2.47;;;;;;;;;;5104224;28;20186;-62
2022/06/22 12:36:08;;;;;;;4.23;2.37;;;;;;;;;;5104178;28;20176;-57
2022/06/22 12:38:45;;;;;;;3.27;2.30;;;;;;;;;;5087681;28;20185;-58
2022/06/22 12:41:32;;;;;;;2.87;2.67;;;;;;;;;;5091937;27;20274;-57
2022/06/22 12:44:17;;;;;;;3.20;2.33;;;;;;;;;;5071718;28;20182;-57
2022/06/22 12:46:46;;;;;;;3.30;2.50;;;;;;;;;;5089228;28;20187;-57
2022/06/22 12:49:28;;;;;;;2.33;2.10;;;;;;;;;;5109702;28;20221;-57
2022/06/22 12:52:01;;;;;;;4.53;2.50;;;;;;;;;;5088738;28;20252;-58
2022/06/22 12:54:30;;;;;;;2.90;2.40;;;;;;;;;;5107989;28;20650;-57
2022/06/22 12:56:56;;;;;;;3.40;2.50;;;;;;;;;;5090799;28;20206;-57
2022/06/22 12:59:39;;;;;;;2.50;2.30;;;;;;;;;;5112997;27;20179;-57
2022/06/22 13:02:13;;;;;;;2.60;2.10;;;;;;;;;;5093138;28;20621;-57
2022/06/22 13:04:40;;;;;;;3.30;2.57;;;;;;;;;;5107054;28;20189;-57
2022/06/22 13:07:09;;;;;;;4.10;2.50;;;;;;;;;;5089874;28;20188;-57
2022/06/22 13:09:36;;;;;;;2.77;2.10;;;;;;;;;;5075119;28;20271;-57
2022/06/22 13:12:21;;;;;;;2.37;2.17;;;;;;;;;;5103655;28;20543;-57
2022/06/22 13:14:51;;;;;;;2.40;2.20;;;;;;;;;;5087351;28;20600;-57
2022/06/22 13:17:27;;;;;;;2.67;2.23;;;;;;;;;;5105942;28;20235;-56
2022/06/22 13:19:56;;;;;;;3.20;2.10;;;;;;;;;;5101293;28;20479;-57
2022/06/22 13:22:31;;;;;;;2.73;2.30;;;;;;;;;;5108888;27;20581;-56
2022/06/22 13:25:20;;;;;;;2.80;2.03;;;;;;;;;;5089815;28;20174;-56
2022/06/22 13:27:59;;;;;;;3.67;2.50;;;;;;;;;;5083820;28;20210;-56
2022/06/22 13:30:33;;;;;;;2.60;2.40;;;;;;;;;;5090012;28;20193;-57
2022/06/22 13:33:07;;;;;;;3.03;2.47;;;;;;;;;;5106845;28;20192;-56
2022/06/22 13:35:36;;;;;;;4.40;2.50;;;;;;;;;;5107655;28;20469;-57
2022/06/22 13:38:09;;;;;;;2.53;2.33;;;;;;;;;;5085837;28;20221;-56
2022/06/22 13:40:36;;;;;;;4.23;2.27;;;;;;;;;;5082422;28;20195;-56
2022/06/22 13:43:14;;;;;;;2.67;2.37;;;;;;;;;;5105597;28;20175;-57
2022/06/22 13:45:49;;;;;;;3.17;2.87;;;;;;;;;;5088192;28;20192;-57
2022/06/22 13:48:21;;;;;;;2.80;2.30;;;;;;;;;;5083389;28;20179;-57
2022/06/22 13:51:08;;;;;;;3.93;2.27;;;;;;;;;;5085372;28;20209;-57
2022/06/22 13:53:40;;;;;;;2.67;2.47;;;;;;;;;;5086063;28;20575;-57
2022/06/22 13:56:20;;;;;;;2.50;2.30;;;;;;;;;;5104338;28;20185;-57
2022/06/22 13:58:47;;;;;;;3.50;2.20;;;;;;;;;;5104954;28;20182;-57
2022/06/22 14:01:22;;;;;;;4.60;3.97;;;;;;;;;;5086968;28;20183;-57
2022/06/22 14:04:04;;;;;;;2.93;2.73;;;;;;;;;;5086704;28;20535;-57
2022/06/22 14:06:49;;;;;;;3.00;2.43;;;;;;;;;;5102787;28;20180;-56
2022/06/22 14:09:20;;;;;;;4.10;2.47;;;;;;;;;;5097608;28;20158;-58
2022/06/22 14:11:49;;;;;;;2.87;2.67;;;;;;;;;;5101311;28;20198;-57
2022/06/22 14:14:36;;;;;;;2.40;2.20;;;;;;;;;;5086122;28;20259;-57
2022/06/22 14:17:06;;;;;;;2.90;2.13;;;;;;;;;;5075684;28;20219;-57
2022/06/22 14:19:40;;;;;;;3.33;2.53;;;;;;;;;;5095167;28;20167;-56
2022/06/22 14:22:19;;;;;;;4.50;3.00;;;;;;;;;;5087108;28;20514;-56
2022/06/22 14:24:46;;;;;;;2.43;2.23;;;;;;;;;;5086116;28;20203;-57
2022/06/22 14:27:22;;;;;;;2.30;2.13;;;;;;;;;;5086442;28;20206;-57
2022/06/22 14:29:53;;;;;;;3.27;2.40;;;;;;;;;;5087199;28;20666;-56
2022/06/22 14:32:38;;;;;;;2.77;2.57;;;;;;;;;;5096215;28;20168;-56
2022/06/22 14:35:23;;;;;;;3.70;2.10;;;;;;;;;;5082110;28;20271;-56
2022/06/22 14:37:50;;;;;;;3.53;2.60;;;;;;;;;;5087435;28;20204;-58
2022/06/22 14:40:19;;;;;;;4.87;2.63;;;;;;;;;;5075774;28;20295;-57
2022/06/22 14:42:58;;;;;;;3.43;2.33;;;;;;;;;;5101644;28;20171;-57
2022/06/22 14:45:30;;;;;;;6.50;2.57;;;;;;;;;;5074996;28;20191;-57
2022/06/22 14:48:03;;;;;;;3.97;2.43;;;;;;;;;;5089253;28;20186;-62
2022/06/22 14:50:36;;;;;;;2.60;2.30;;;;;;;;;;5083702;28;20264;-62
2022/06/22 14:53:18;;;;;;;3.80;2.50;;;;;;;;;;5083402;28;20200;-63
2022/06/22 14:55:53;;;;;;;2.63;2.30;;;;;;;;;;5079102;28;20190;-64
2022/06/22 14:58:21;;;;;;;3.23;2.40;;;;;;;;;;5086037;28;20194;-62
2022/06/22 15:01:00;;;;;;;4.17;2.27;;;;;;;;;;5089640;28;20642;-62
2022/06/22 15:03:29;;;;;;;4.10;2.67;;;;;;;;;;5080552;28;20707;-63
2022/06/22 15:06:07;;;;;;;3.97;2.27;;;;;;;;;;5085873;28;20266;-62
2022/06/22 15:08:51;;;;;;;2.33;2.13;;;;;;;;;;5083090;28;20531;-61
2022/06/22 15:14:32;;;;;;;4.97;2.60;;;;;;;;;;5082634;28;20249;-61
2022/06/22 15:17:04;;;;;;;5.57;2.83;;;;;;;;;;5070692;28;20505;-62
2022/06/22 15:19:32;;;;;;;3.20;2.20;;;;;;;;;;5067702;28;20581;-62
2022/06/22 15:22:07;;;;;;;3.03;2.70;;;;;;;;;;5065430;28;20209;-61
2022/06/22 15:24:43;;;;;;;3.40;2.47;;;;;;;;;;5065425;28;20197;-62
2022/06/22 15:27:12;;;;;;;3.10;2.73;;;;;;;;;;5068247;28;20183;-62
2022/06/22 15:29:45;;;;;;;68.55;47.65;;;;;;;;;;5060964;28;20936;-62
2022/06/22 15:32:28;;;;;;;64.60;39.27;;;;;;;;;;5082472;28;20267;-62
2022/06/22 15:35:01;;;;;;;134.30;92.60;;;;;;;;;;5072623;28;20218;-62
2022/06/22 15:37:43;;;;;;;31.50;23.05;;;;;;;;;;5061960;28;20204;-61
2022/06/22 15:40:13;;;;;;;12.57;10.17;;;;;;;;;;5050947;28;20184;-61
2022/06/22 15:42:39;;;;;;;10.80;6.93;;;;;;;;;;5061544;28;20649;-63
2022/06/22 15:45:12;;;;;;;11.97;9.60;;;;;;;;;;5088136;28;20170;-62
2022/06/22 15:47:42;;;;;;;5.27;4.50;;;;;;;;;;5061363;28;20171;-62